createdAt,value
2019-02-09T00:02:24.040Z,86.45
2019-02-09T00:04:54.978Z,86.66
2019-02-09T00:07:27.759Z,86.89
2019-02-09T00:09:58.401Z,87.07
2019-02-09T00:12:29.829Z,87.15
2019-02-09T00:15:01.058Z,87.12
2019-02-09T00:17:32.358Z,87.09
2019-02-09T00:20:02.990Z,86.96
2019-02-09T00:22:33.720Z,86.81
2019-02-09T00:25:04.719Z,86.69
2019-02-09T00:27:35.439Z,86.68
2019-02-09T00:30:08.875Z,86.73
2019-02-09T00:32:39.819Z,86.80
2019-02-09T00:35:11.749Z,86.76
2019-02-09T00:37:42.519Z,86.84
2019-02-09T00:40:13.639Z,86.92
2019-02-09T00:42:44.220Z,86.92
2019-02-09T00:45:16.920Z,86.81
2019-02-09T00:47:47.999Z,86.65
2019-02-09T00:50:19.682Z,86.49
2019-02-09T00:52:50.419Z,86.33
2019-02-09T00:55:22.130Z,86.35
2019-02-09T00:57:52.780Z,86.29
2019-02-09T01:00:25.035Z,85.71
2019-02-09T01:02:55.800Z,85.26
2019-02-09T01:05:31.500Z,84.60
2019-02-09T01:08:02.238Z,83.91
2019-02-09T01:10:33.590Z,83.19
2019-02-09T01:13:04.825Z,83.17
2019-02-09T01:15:36.290Z,82.97
2019-02-09T01:18:07.625Z,82.96
2019-02-09T01:20:38.599Z,82.98
2019-02-09T01:23:10.099Z,82.81
2019-02-09T01:25:41.200Z,82.62
2019-02-09T01:28:12.014Z,82.44
2019-02-09T01:30:42.770Z,82.38
2019-02-09T01:33:13.545Z,82.20
2019-02-09T01:35:44.380Z,81.77
2019-02-09T01:38:15.079Z,81.71
2019-02-09T01:40:45.771Z,81.45
2019-02-09T01:43:16.393Z,81.13
2019-02-09T01:45:47.032Z,80.71
2019-02-09T01:48:18.129Z,80.93
2019-02-09T01:50:49.605Z,80.64
2019-02-09T01:53:20.750Z,80.72
2019-02-09T01:55:51.690Z,80.96
2019-02-09T01:58:22.934Z,80.29
2019-02-09T02:00:53.742Z,80.54
2019-02-09T02:03:24.439Z,80.49
2019-02-09T02:05:55.280Z,80.31
2019-02-09T02:08:26.142Z,79.60
2019-02-09T02:10:56.975Z,79.15
2019-02-09T02:13:29.118Z,79.38
2019-02-09T02:15:59.830Z,78.95
2019-02-09T02:18:30.511Z,79.08
2019-02-09T02:21:01.359Z,78.36
2019-02-09T02:23:32.122Z,79.35
2019-02-09T02:26:02.950Z,79.27
2019-02-09T02:28:33.658Z,79.82
2019-02-09T02:31:04.438Z,79.76
2019-02-09T02:33:35.098Z,79.38
2019-02-09T02:36:06.219Z,79.50
2019-02-09T02:38:37.126Z,79.65
2019-02-09T02:41:07.839Z,79.73
2019-02-09T02:43:38.656Z,79.90
2019-02-09T02:46:10.934Z,80.20
2019-02-09T02:48:41.659Z,80.35
2019-02-09T02:51:12.479Z,80.09
2019-02-09T02:53:43.258Z,79.79
2019-02-09T02:56:14.080Z,79.55
2019-02-09T02:58:44.760Z,79.48
2019-02-09T03:01:15.579Z,79.43
2019-02-09T03:03:46.343Z,79.76
2019-02-09T03:06:16.987Z,79.99
2019-02-09T03:08:47.610Z,80.44
2019-02-09T03:11:18.478Z,80.89
2019-02-09T03:13:49.140Z,81.41
2019-02-09T03:16:19.911Z,81.65
2019-02-09T03:18:50.996Z,81.69
2019-02-09T03:21:21.791Z,81.24
2019-02-09T03:23:52.540Z,81.03
2019-02-09T03:26:23.239Z,80.61
2019-02-09T03:28:53.960Z,80.32
2019-02-09T03:31:24.721Z,80.18
2019-02-09T03:33:55.418Z,80.07
2019-02-09T03:36:26.201Z,79.99
2019-02-09T03:38:56.899Z,80.00
2019-02-09T03:41:27.579Z,79.31
2019-02-09T03:43:58.399Z,79.27
2019-02-09T03:46:29.071Z,79.18
2019-02-09T03:48:59.740Z,79.46
2019-02-09T03:51:30.439Z,79.61
2019-02-09T03:54:01.550Z,79.66
2019-02-09T03:56:32.299Z,79.23
2019-02-09T03:59:03.171Z,78.33
2019-02-09T04:01:34.004Z,78.25
2019-02-09T04:04:04.973Z,77.49
2019-02-09T04:06:35.730Z,76.83
2019-02-09T04:09:09.615Z,76.71
2019-02-09T04:11:40.390Z,77.54
2019-02-09T04:14:11.151Z,78.26
2019-02-09T04:16:41.820Z,78.16
2019-02-09T04:19:12.682Z,77.30
2019-02-09T04:21:46.618Z,76.37
2019-02-09T04:24:17.476Z,76.43
2019-02-09T04:26:48.211Z,76.18
2019-02-09T04:29:18.859Z,76.17
2019-02-09T04:31:49.860Z,76.22
2019-02-09T04:34:20.393Z,77.44
2019-02-09T04:36:51.120Z,78.31
2019-02-09T04:39:21.988Z,79.33
2019-02-09T04:41:52.681Z,79.71
2019-02-09T04:44:23.460Z,80.22
2019-02-09T04:46:54.240Z,80.83
2019-02-09T04:49:25.072Z,80.88
2019-02-09T04:51:55.878Z,80.71
2019-02-09T04:54:26.700Z,80.89
2019-02-09T04:56:57.580Z,80.44
2019-02-09T04:59:28.239Z,80.93
2019-02-09T05:01:59.459Z,81.73
2019-02-09T05:04:30.281Z,81.44
2019-02-09T05:07:01.401Z,80.86
2019-02-09T05:09:32.240Z,80.69
2019-02-09T05:12:02.920Z,79.98
2019-02-09T05:14:33.735Z,80.51
2019-02-09T05:17:04.490Z,80.90
2019-02-09T05:19:35.239Z,81.42
2019-02-09T05:22:06.101Z,81.25
2019-02-09T05:24:36.906Z,80.69
2019-02-09T05:27:07.877Z,80.75
2019-02-09T05:29:38.601Z,80.56
2019-02-09T05:32:09.379Z,80.53
2019-02-09T05:34:40.091Z,79.74
2019-02-09T05:37:10.839Z,79.58
2019-02-09T05:39:41.599Z,80.09
2019-02-09T05:42:12.444Z,80.48
2019-02-09T05:44:43.190Z,80.42
2019-02-09T05:47:13.839Z,80.56
2019-02-09T05:49:44.678Z,80.32
2019-02-09T05:52:15.497Z,80.62
2019-02-09T05:54:46.300Z,80.59
2019-02-09T05:57:17.022Z,79.94
2019-02-09T05:59:47.755Z,79.18
2019-02-09T06:02:18.679Z,79.80
2019-02-09T06:04:49.361Z,79.57
2019-02-09T06:07:20.116Z,79.27
2019-02-09T06:09:50.755Z,79.09
2019-02-09T06:12:21.436Z,78.38
2019-02-09T06:14:52.921Z,78.79
2019-02-09T06:17:23.676Z,79.03
2019-02-09T06:19:54.375Z,79.59
2019-02-09T06:22:25.099Z,79.68
2019-02-09T06:24:55.839Z,79.98
2019-02-09T06:27:26.603Z,80.12
2019-02-09T06:29:57.435Z,80.17
2019-02-09T06:32:27.975Z,79.46
2019-02-09T06:34:59.098Z,78.29
2019-02-09T06:37:29.759Z,77.37
2019-02-09T06:40:00.383Z,77.60
2019-02-09T06:42:31.095Z,77.46
2019-02-09T06:45:01.892Z,77.61
2019-02-09T06:47:32.504Z,76.91
2019-02-09T06:50:02.935Z,76.55
2019-02-09T06:52:33.838Z,76.12
2019-02-09T06:55:05.365Z,76.37
2019-02-09T06:57:37.636Z,75.77
2019-02-09T07:00:13.042Z,75.38
2019-02-09T07:02:43.528Z,75.28
2019-02-09T07:05:17.934Z,73.92
2019-02-09T07:07:48.918Z,73.53
2019-02-09T07:10:22.689Z,73.13
2019-02-09T07:12:53.319Z,72.96
2019-02-09T07:15:27.389Z,71.90
2019-02-09T07:17:58.263Z,71.63
2019-02-09T07:20:28.891Z,70.51
2019-02-09T07:22:59.942Z,69.14
2019-02-09T07:25:30.499Z,67.98
2019-02-09T07:28:12.163Z,66.95
2019-02-09T07:30:43.209Z,67.29
2019-02-09T07:33:14.040Z,65.52
2019-02-09T07:35:44.710Z,65.27
2019-02-09T07:38:15.452Z,65.74
2019-02-09T07:40:46.071Z,65.80
2019-02-09T07:43:16.979Z,65.46
2019-02-09T07:45:47.559Z,65.65
2019-02-09T07:48:18.136Z,64.89
2019-02-09T07:50:48.743Z,65.25
2019-02-09T07:53:19.320Z,65.26
2019-02-09T07:55:50.472Z,65.76
2019-02-09T07:58:20.994Z,65.75
2019-02-09T08:00:51.581Z,65.80
2019-02-09T08:03:22.242Z,64.83
2019-02-09T08:05:52.735Z,64.12
2019-02-09T08:08:23.410Z,63.07
2019-02-09T08:10:54.031Z,63.52
2019-02-09T08:13:24.684Z,64.14
2019-02-09T08:15:55.345Z,64.18
2019-02-09T08:18:26.060Z,64.71
2019-02-09T08:20:56.688Z,64.82
2019-02-09T08:23:27.264Z,64.52
2019-02-09T08:25:57.831Z,64.44
2019-02-09T08:28:28.374Z,64.75
2019-02-09T08:30:58.919Z,64.54
2019-02-09T08:33:29.709Z,64.12
2019-02-09T08:36:00.480Z,64.34
2019-02-09T08:38:31.139Z,63.49
2019-02-09T08:41:01.619Z,64.35
2019-02-09T08:43:32.248Z,64.63
2019-02-09T08:46:02.926Z,64.61
2019-02-09T08:48:33.426Z,64.03
2019-02-09T08:51:09.405Z,64.40
2019-02-09T08:53:40.013Z,64.49
2019-02-09T08:56:10.720Z,63.67
2019-02-09T08:58:41.455Z,62.83
2019-02-09T09:01:12.065Z,63.52
2019-02-09T09:03:42.809Z,62.59
2019-02-09T09:06:13.362Z,62.16
2019-02-09T09:08:43.953Z,62.08
2019-02-09T09:11:14.661Z,61.28
2019-02-09T09:13:45.201Z,62.00
2019-02-09T09:16:15.980Z,63.06
2019-02-09T09:18:46.650Z,62.03
2019-02-09T09:21:17.227Z,62.86
2019-02-09T09:23:48.018Z,63.44
2019-02-09T09:26:19.003Z,64.17
2019-02-09T09:28:49.753Z,64.67
2019-02-09T09:31:20.340Z,65.47
2019-02-09T09:33:59.049Z,63.43
2019-02-09T09:36:30.157Z,63.38
2019-02-09T09:39:00.781Z,62.76
2019-02-09T09:41:31.365Z,62.77
2019-02-09T09:44:17.609Z,61.61
2019-02-09T09:46:48.470Z,60.98
2019-02-09T09:49:19.110Z,59.51
2019-02-09T09:51:49.907Z,60.00
2019-02-09T09:54:20.770Z,60.20
2019-02-09T09:56:51.379Z,59.48
2019-02-09T09:59:22.291Z,58.83
2019-02-09T10:01:52.881Z,58.06
2019-02-09T10:04:23.588Z,58.24
2019-02-09T10:06:54.162Z,59.05
2019-02-09T10:09:24.864Z,59.16
2019-02-09T10:12:01.504Z,59.88
2019-02-09T10:14:32.281Z,60.54
2019-02-09T10:17:02.864Z,60.87
2019-02-09T10:19:33.504Z,61.18
2019-02-09T10:22:04.095Z,61.99
2019-02-09T10:24:34.679Z,63.38
2019-02-09T10:27:05.169Z,63.36
2019-02-09T10:29:35.675Z,63.32
2019-02-09T10:32:09.225Z,64.06
2019-02-09T10:34:39.800Z,64.50
2019-02-09T10:37:10.314Z,64.87
2019-02-09T10:39:40.901Z,64.71
2019-02-09T10:42:11.436Z,64.67
2019-02-09T10:44:42.000Z,65.27
2019-02-09T10:47:12.733Z,65.36
2019-02-09T10:49:46.774Z,66.02
2019-02-09T10:52:19.123Z,66.15
2019-02-09T10:54:49.859Z,66.21
2019-02-09T10:57:20.379Z,65.79
2019-02-09T10:59:58.081Z,65.60
2019-02-09T11:02:28.571Z,65.66
2019-02-09T11:04:59.154Z,64.97
2019-02-09T11:07:29.774Z,64.87
2019-02-09T11:10:02.219Z,64.76
2019-02-09T11:12:32.744Z,64.36
2019-02-09T11:15:03.309Z,64.41
2019-02-09T11:17:33.953Z,62.84
2019-02-09T11:20:05.303Z,62.58
2019-02-09T11:22:36.009Z,63.70
2019-02-09T11:25:08.639Z,64.58
2019-02-09T11:27:41.353Z,62.28
2019-02-09T11:30:19.892Z,57.04
2019-02-09T11:32:50.995Z,54.24
2019-02-09T11:35:22.199Z,52.70
2019-02-09T11:38:01.175Z,51.73
2019-02-09T11:40:32.015Z,51.19
2019-02-09T11:43:04.127Z,52.54
2019-02-09T11:45:35.703Z,55.27
2019-02-09T11:48:07.134Z,57.10
2019-02-09T11:50:37.744Z,54.64
2019-02-09T11:53:08.571Z,53.24
2019-02-09T11:55:39.172Z,52.36
2019-02-09T11:58:09.936Z,50.23
2019-02-09T12:00:45.611Z,50.02
2019-02-09T12:03:16.506Z,48.47
2019-02-09T12:05:47.454Z,47.79
2019-02-09T12:08:18.296Z,49.24
2019-02-09T12:10:48.969Z,50.09
2019-02-09T12:13:19.641Z,49.50
2019-02-09T12:15:52.262Z,49.31
2019-02-09T12:18:23.360Z,48.71
2019-02-09T12:20:53.898Z,48.89
2019-02-09T12:23:24.490Z,48.56
2019-02-09T12:26:05.727Z,48.15
2019-02-09T12:28:36.348Z,49.09
2019-02-09T12:31:07.028Z,50.65
2019-02-09T12:33:37.677Z,51.23
2019-02-09T12:36:09.066Z,52.22
2019-02-09T12:38:39.804Z,53.27
2019-02-09T12:41:10.599Z,53.65
2019-02-09T12:43:42.452Z,54.41
2019-02-09T12:46:13.119Z,54.05
2019-02-09T12:48:43.820Z,54.18
2019-02-09T12:51:14.419Z,54.61
2019-02-09T12:53:45.056Z,54.54
2019-02-09T12:56:15.660Z,54.65
2019-02-09T12:58:46.210Z,56.44
2019-02-09T13:01:16.977Z,57.16
2019-02-09T13:03:47.627Z,58.03
2019-02-09T13:06:18.412Z,58.42
2019-02-09T13:08:50.183Z,57.53
2019-02-09T13:11:20.772Z,58.51
2019-02-09T13:14:00.086Z,59.44
2019-02-09T13:16:30.727Z,59.55
2019-02-09T13:19:01.355Z,59.95
2019-02-09T13:21:31.970Z,60.10
2019-02-09T13:24:02.520Z,60.74
2019-02-09T13:26:33.107Z,60.96
2019-02-09T13:29:03.632Z,61.08
2019-02-09T13:31:34.280Z,61.58
2019-02-09T13:34:04.994Z,61.69
2019-02-09T13:36:35.605Z,61.52
2019-02-09T13:39:09.228Z,61.55
2019-02-09T13:41:39.885Z,61.62
2019-02-09T13:44:10.508Z,61.51
2019-02-09T13:46:41.177Z,61.63
2019-02-09T13:49:11.695Z,61.97
2019-02-09T13:51:47.801Z,61.41
2019-02-09T13:54:18.335Z,62.38
2019-02-09T13:56:48.864Z,61.87
2019-02-09T13:59:19.442Z,61.98
2019-02-09T14:01:50.420Z,61.92
2019-02-09T14:04:21.250Z,62.20
2019-02-09T14:06:51.891Z,61.80
2019-02-09T14:09:22.611Z,62.31
2019-02-09T14:11:53.544Z,62.08
2019-02-09T14:14:24.270Z,61.97
2019-02-09T14:16:54.960Z,62.16
2019-02-09T14:19:25.724Z,62.34
2019-02-09T14:22:04.396Z,62.43
2019-02-09T14:24:34.949Z,62.13
2019-02-09T14:27:05.591Z,61.10
2019-02-09T14:29:36.182Z,61.08
2019-02-09T14:32:07.343Z,60.93
2019-02-09T14:34:38.075Z,61.14
2019-02-09T14:37:08.624Z,60.84
2019-02-09T14:39:39.231Z,61.21
2019-02-09T14:42:09.825Z,61.62
2019-02-09T14:44:40.346Z,61.47
2019-02-09T14:47:11.000Z,61.73
2019-02-09T14:49:41.609Z,61.78
2019-02-09T14:52:12.247Z,61.90
2019-02-09T14:54:43.291Z,62.20
2019-02-09T14:57:13.849Z,62.22
2019-02-09T14:59:44.390Z,62.49
2019-02-09T15:02:15.021Z,62.83
2019-02-09T15:04:45.700Z,62.92
2019-02-09T15:07:16.390Z,63.02
2019-02-09T15:09:47.145Z,63.30
2019-02-09T15:12:17.673Z,63.35
2019-02-09T15:14:48.391Z,63.56
2019-02-09T15:17:18.900Z,64.34
2019-02-09T15:19:49.451Z,64.61
2019-02-09T15:22:20.130Z,65.11
2019-02-09T15:24:53.861Z,64.49
2019-02-09T15:27:25.558Z,64.79
2019-02-09T15:29:56.383Z,64.94
2019-02-09T15:32:26.959Z,65.14
2019-02-09T15:34:57.624Z,65.34
2019-02-09T15:37:28.220Z,65.41
2019-02-09T15:39:58.830Z,65.88
2019-02-09T15:42:29.522Z,66.14
2019-02-09T15:45:00.257Z,66.50
2019-02-09T15:47:31.016Z,66.54
2019-02-09T15:50:03.107Z,66.93
2019-02-09T15:52:33.851Z,66.88
2019-02-09T15:55:04.606Z,66.89
2019-02-09T15:57:35.242Z,67.31
2019-02-09T16:00:12.827Z,67.58
2019-02-09T16:02:44.776Z,67.44
2019-02-09T16:05:15.665Z,67.70
2019-02-09T16:07:46.230Z,67.62
2019-02-09T16:10:19.160Z,68.01
2019-02-09T16:12:51.108Z,68.34
2019-02-09T16:15:26.896Z,67.96
2019-02-09T16:17:59.415Z,67.54
2019-02-09T16:20:30.546Z,67.90
2019-02-09T16:23:01.179Z,68.03
2019-02-09T16:25:32.991Z,68.03
2019-02-09T16:28:05.724Z,67.91
2019-02-09T16:30:36.471Z,67.88
2019-02-09T16:33:07.350Z,68.15
2019-02-09T16:35:39.275Z,68.23
2019-02-09T16:38:09.999Z,68.17
2019-02-09T16:40:40.661Z,68.28
2019-02-09T16:43:13.706Z,68.16
2019-02-09T16:45:44.766Z,68.44
2019-02-09T16:48:15.841Z,68.82
2019-02-09T16:50:49.405Z,68.89
2019-02-09T16:53:22.625Z,69.26
2019-02-09T16:55:56.817Z,69.47
2019-02-09T16:58:27.428Z,69.74
2019-02-09T17:01:05.283Z,69.89
2019-02-09T17:03:35.115Z,70.17
2019-02-09T17:06:06.106Z,70.51
2019-02-09T17:08:44.114Z,70.66
2019-02-09T17:11:14.737Z,70.79
2019-02-09T17:13:45.268Z,70.71
2019-02-09T17:16:16.247Z,70.94
2019-02-09T17:18:47.012Z,71.02
2019-02-09T17:21:17.804Z,71.31
2019-02-09T17:23:48.562Z,70.65
2019-02-09T17:26:19.293Z,70.27
2019-02-09T17:28:51.037Z,70.36
2019-02-09T17:31:21.693Z,70.59
2019-02-09T17:33:53.891Z,70.45
2019-02-09T17:36:25.662Z,70.56
2019-02-09T17:38:56.399Z,70.67
2019-02-09T17:41:27.128Z,70.77
2019-02-09T17:44:01.287Z,70.92
2019-02-09T17:46:35.142Z,71.03
2019-02-09T17:49:05.781Z,71.22
2019-02-09T17:51:36.566Z,71.39
2019-02-09T17:54:07.310Z,71.56
2019-02-09T17:56:39.999Z,71.87
2019-02-09T17:59:10.439Z,71.95
2019-02-09T18:01:41.158Z,72.19
2019-02-09T18:04:14.583Z,72.27
2019-02-09T18:06:46.210Z,72.53
2019-02-09T18:09:19.014Z,72.64
2019-02-09T18:11:49.510Z,72.80
2019-02-09T18:14:23.430Z,72.86
2019-02-09T18:16:54.018Z,73.00
2019-02-09T18:19:25.904Z,73.14
2019-02-09T18:21:57.648Z,73.33
2019-02-09T18:24:29.346Z,73.63
2019-02-09T18:27:03.834Z,73.56
2019-02-09T18:29:37.641Z,73.75
2019-02-09T18:32:17.087Z,73.45
2019-02-09T18:34:56.819Z,73.40
2019-02-09T18:37:32.562Z,73.65
2019-02-09T18:40:12.569Z,73.84
2019-02-09T18:42:43.157Z,73.69
2019-02-09T18:45:21.652Z,73.22
2019-02-09T18:47:52.328Z,73.55
2019-02-09T18:50:30.534Z,73.67
2019-02-09T18:53:03.747Z,73.51
2019-02-09T18:55:34.339Z,73.41
2019-02-09T18:58:06.275Z,73.35
2019-02-09T19:00:45.619Z,73.31
2019-02-09T19:03:19.129Z,73.24
2019-02-09T19:05:56.502Z,73.10
2019-02-09T19:08:28.363Z,73.05
2019-02-09T19:11:00.489Z,72.98
2019-02-09T19:13:38.326Z,73.05
2019-02-09T19:16:09.314Z,73.19
2019-02-09T19:18:40.021Z,73.59
2019-02-09T19:21:17.971Z,73.72
2019-02-09T19:23:48.815Z,73.82
2019-02-09T19:26:23.685Z,74.03
2019-02-09T19:28:58.984Z,73.78
2019-02-09T19:31:30.028Z,73.87
2019-02-09T19:34:04.738Z,73.81
2019-02-09T19:36:36.579Z,74.20
2019-02-09T19:39:14.257Z,74.27
2019-02-09T19:41:50.124Z,74.56
2019-02-09T19:44:22.029Z,74.79
2019-02-09T19:46:55.867Z,74.85
2019-02-09T19:49:30.984Z,74.98
2019-02-09T19:52:08.370Z,75.22
2019-02-09T19:54:36.472Z,75.03
2019-02-09T19:57:10.175Z,74.90
2019-02-09T19:59:42.594Z,75.02
2019-02-09T20:02:21.056Z,74.87
2019-02-09T20:04:57.108Z,74.94
2019-02-09T20:07:32.067Z,74.94
2019-02-09T20:10:03.546Z,74.92
2019-02-09T20:12:35.727Z,74.75
2019-02-09T20:15:10.179Z,74.79
2019-02-09T20:17:45.363Z,74.88
2019-02-09T20:20:23.160Z,74.93
2019-02-09T20:22:53.826Z,74.92
2019-02-09T20:25:29.290Z,75.11
2019-02-09T20:28:04.294Z,75.17
2019-02-09T20:30:38.931Z,75.11
2019-02-09T20:33:12.117Z,74.97
2019-02-09T20:35:49.925Z,74.47
2019-02-09T20:38:21.812Z,74.42
2019-02-09T20:40:59.281Z,74.13
2019-02-09T20:43:34.321Z,74.28
2019-02-09T20:46:05.304Z,74.38
2019-02-09T20:48:36.160Z,74.40
2019-02-09T20:51:07.052Z,74.48
2019-02-09T20:53:41.300Z,74.38
2019-02-09T20:56:12.491Z,74.22
2019-02-09T20:58:45.322Z,74.13
2019-02-09T21:01:17.099Z,74.25
2019-02-09T21:03:48.962Z,74.40
2019-02-09T21:06:20.148Z,74.62
2019-02-09T21:08:51.101Z,74.29
2019-02-09T21:11:26.342Z,74.46
2019-02-09T21:13:56.877Z,74.57
2019-02-09T21:16:27.486Z,74.58
2019-02-09T21:19:01.265Z,74.71
2019-02-09T21:21:37.845Z,74.83
2019-02-09T21:24:08.496Z,74.77
2019-02-09T21:26:43.417Z,74.94
2019-02-09T21:29:15.200Z,75.12
2019-02-09T21:31:50.039Z,75.22
2019-02-09T21:34:20.740Z,75.33
2019-02-09T21:36:52.512Z,75.49
2019-02-09T21:39:33.726Z,75.71
2019-02-09T21:42:06.113Z,75.76
2019-02-09T21:44:40.048Z,75.34
2019-02-09T21:47:18.903Z,75.51
2019-02-09T21:49:51.980Z,75.64
2019-02-09T21:52:26.905Z,75.62
2019-02-09T21:54:58.586Z,75.77
2019-02-09T21:57:31.995Z,75.54
2019-02-09T22:00:06.643Z,75.43
2019-02-09T22:02:42.683Z,75.38
2019-02-09T22:05:12.357Z,75.46
2019-02-09T22:07:43.172Z,75.41
2019-02-09T22:10:18.827Z,75.09
2019-02-09T22:12:50.826Z,75.25
2019-02-09T22:15:24.195Z,75.36
2019-02-09T22:17:54.916Z,75.23
2019-02-09T22:20:25.900Z,75.04
2019-02-09T22:22:56.985Z,74.64
2019-02-09T22:25:27.711Z,74.78
2019-02-09T22:27:58.725Z,74.90
2019-02-09T22:30:30.228Z,75.12
2019-02-09T22:33:00.969Z,75.15
2019-02-09T22:35:31.964Z,75.26
2019-02-09T22:38:02.732Z,75.20
2019-02-09T22:40:36.054Z,75.42
2019-02-09T22:43:07.567Z,75.35
2019-02-09T22:45:38.455Z,75.43
2019-02-09T22:48:10.638Z,75.42
2019-02-09T22:50:46.960Z,75.60
2019-02-09T22:53:17.696Z,75.78
2019-02-09T22:55:48.496Z,76.12
2019-02-09T22:58:19.796Z,76.38
2019-02-09T23:01:16.142Z,76.66
2019-02-09T23:04:17.466Z,76.81
2019-02-09T23:07:03.552Z,77.02
2019-02-09T23:09:34.969Z,77.19
2019-02-09T23:12:05.621Z,77.27
2019-02-09T23:14:36.346Z,77.62
2019-02-09T23:17:07.039Z,77.75
2019-02-09T23:19:38.202Z,77.71
2019-02-09T23:22:11.688Z,77.84
2019-02-09T23:24:42.518Z,78.06
2019-02-09T23:27:13.567Z,78.01
2019-02-09T23:29:44.519Z,77.78
2019-02-09T23:32:15.723Z,77.94
2019-02-09T23:34:46.968Z,78.08
2019-02-09T23:37:17.523Z,78.26
2019-02-09T23:39:48.675Z,78.70
2019-02-09T23:42:19.320Z,78.74
2019-02-09T23:44:49.773Z,79.09
2019-02-09T23:47:20.535Z,79.51
2019-02-09T23:49:51.665Z,79.57
2019-02-09T23:52:22.394Z,79.62
2019-02-09T23:54:53.215Z,79.91
2019-02-09T23:57:23.905Z,80.33
2019-02-09T23:59:54.468Z,80.59
